sensor_id;sensor_type;location;lat;lon;timestamp;P1;durP1;ratioP1;P2;durP2;ratioP2
48845;SDS011;34665;51.886;5.436;2023-02-10T00:01:27;81.43;;;33.28;;
48845;SDS011;34665;51.886;5.436;2023-02-10T00:03:54;78.65;;;29.33;;
48845;SDS011;34665;51.886;5.436;2023-02-10T00:06:22;80.93;;;30.98;;
48845;SDS011;34665;51.886;5.436;2023-02-10T00:08:53;65.10;;;27.98;;
48845;SDS011;34665;51.886;5.436;2023-02-10T00:11:20;77.75;;;30.10;;
48845;SDS011;34665;51.886;5.436;2023-02-10T00:14:06;73.30;;;30.05;;
48845;SDS011;34665;51.886;5.436;2023-02-10T00:16:31;78.60;;;29.77;;
48845;SDS011;34665;51.886;5.436;2023-02-10T00:18:57;79.50;;;30.13;;
48845;SDS011;34665;51.886;5.436;2023-02-10T00:21:23;81.47;;;29.77;;
48845;SDS011;34665;51.886;5.436;2023-02-10T00:23:48;70.53;;;28.43;;
48845;SDS011;34665;51.886;5.436;2023-02-10T00:26:13;73.60;;;30.27;;
48845;SDS011;34665;51.886;5.436;2023-02-10T00:28:42;72.88;;;28.25;;
48845;SDS011;34665;51.886;5.436;2023-02-10T00:31:10;77.97;;;30.17;;
48845;SDS011;34665;51.886;5.436;2023-02-10T00:33:37;63.13;;;29.15;;
48845;SDS011;34665;51.886;5.436;2023-02-10T00:36:03;69.35;;;26.63;;
48845;SDS011;34665;51.886;5.436;2023-02-10T00:38:30;68.88;;;29.48;;
48845;SDS011;34665;51.886;5.436;2023-02-10T00:41:00;69.00;;;29.30;;
48845;SDS011;34665;51.886;5.436;2023-02-10T00:43:30;71.85;;;30.77;;
48845;SDS011;34665;51.886;5.436;2023-02-10T00:45:55;71.97;;;31.60;;
48845;SDS011;34665;51.886;5.436;2023-02-10T00:48:20;72.20;;;29.27;;
48845;SDS011;34665;51.886;5.436;2023-02-10T00:50:46;71.27;;;30.53;;
48845;SDS011;34665;51.886;5.436;2023-02-10T00:53:12;67.25;;;28.80;;
48845;SDS011;34665;51.886;5.436;2023-02-10T00:55:37;71.37;;;28.97;;
48845;SDS011;34665;51.886;5.436;2023-02-10T00:58:03;69.23;;;28.17;;
48845;SDS011;34665;51.886;5.436;2023-02-10T01:00:28;64.57;;;27.53;;
48845;SDS011;34665;51.886;5.436;2023-02-10T01:02:54;67.00;;;28.37;;
48845;SDS011;34665;51.886;5.436;2023-02-10T01:05:19;66.27;;;26.50;;
48845;SDS011;34665;51.886;5.436;2023-02-10T01:07:44;68.47;;;26.90;;
48845;SDS011;34665;51.886;5.436;2023-02-10T01:10:10;68.67;;;27.07;;
48845;SDS011;34665;51.886;5.436;2023-02-10T01:12:35;65.50;;;26.50;;
48845;SDS011;34665;51.886;5.436;2023-02-10T01:15:01;60.80;;;26.08;;
48845;SDS011;34665;51.886;5.436;2023-02-10T01:17:26;71.27;;;26.50;;
48845;SDS011;34665;51.886;5.436;2023-02-10T01:19:52;73.10;;;26.90;;
48845;SDS011;34665;51.886;5.436;2023-02-10T01:22:17;58.27;;;25.17;;
48845;SDS011;34665;51.886;5.436;2023-02-10T01:24:43;66.77;;;25.97;;
48845;SDS011;34665;51.886;5.436;2023-02-10T01:27:08;68.10;;;25.42;;
48845;SDS011;34665;51.886;5.436;2023-02-10T01:29:34;61.10;;;26.13;;
48845;SDS011;34665;51.886;5.436;2023-02-10T01:31:59;58.53;;;26.55;;
48845;SDS011;34665;51.886;5.436;2023-02-10T01:34:25;55.70;;;24.87;;
48845;SDS011;34665;51.886;5.436;2023-02-10T01:36:52;61.50;;;26.70;;
48845;SDS011;34665;51.886;5.436;2023-02-10T01:39:17;64.60;;;25.60;;
48845;SDS011;34665;51.886;5.436;2023-02-10T01:41:43;62.67;;;26.50;;
48845;SDS011;34665;51.886;5.436;2023-02-10T01:46:46;60.35;;;25.92;;
48845;SDS011;34665;51.886;5.436;2023-02-10T01:49:15;64.65;;;26.73;;
48845;SDS011;34665;51.886;5.436;2023-02-10T01:51:45;59.78;;;24.90;;
48845;SDS011;34665;51.886;5.436;2023-02-10T01:54:19;57.50;;;23.90;;
48845;SDS011;34665;51.886;5.436;2023-02-10T01:56:50;56.95;;;25.27;;
48845;SDS011;34665;51.886;5.436;2023-02-10T01:59:17;54.60;;;22.63;;
48845;SDS011;34665;51.886;5.436;2023-02-10T02:01:45;56.78;;;24.50;;
48845;SDS011;34665;51.886;5.436;2023-02-10T02:04:11;62.08;;;25.73;;
48845;SDS011;34665;51.886;5.436;2023-02-10T02:06:36;57.15;;;25.17;;
48845;SDS011;34665;51.886;5.436;2023-02-10T02:11:33;63.10;;;25.63;;
48845;SDS011;34665;51.886;5.436;2023-02-10T02:17:00;78.32;;;29.55;;
48845;SDS011;34665;51.886;5.436;2023-02-10T02:22:58;68.95;;;26.92;;
48845;SDS011;34665;51.886;5.436;2023-02-10T02:28:48;67.70;;;28.40;;
48845;SDS011;34665;51.886;5.436;2023-02-10T02:34:18;70.50;;;28.55;;
48845;SDS011;34665;51.886;5.436;2023-02-10T02:36:54;68.90;;;28.73;;
48845;SDS011;34665;51.886;5.436;2023-02-10T02:39:26;61.80;;;25.55;;
48845;SDS011;34665;51.886;5.436;2023-02-10T02:42:12;74.50;;;29.60;;
48845;SDS011;34665;51.886;5.436;2023-02-10T02:44:39;65.63;;;28.10;;
48845;SDS011;34665;51.886;5.436;2023-02-10T02:47:13;69.50;;;28.70;;
48845;SDS011;34665;51.886;5.436;2023-02-10T02:49:53;70.15;;;28.77;;
48845;SDS011;34665;51.886;5.436;2023-02-10T02:58:05;67.50;;;26.42;;
48845;SDS011;34665;51.886;5.436;2023-02-10T03:00:41;62.65;;;27.40;;
48845;SDS011;34665;51.886;5.436;2023-02-10T03:03:08;65.72;;;27.63;;
48845;SDS011;34665;51.886;5.436;2023-02-10T03:05:36;69.25;;;29.27;;
48845;SDS011;34665;51.886;5.436;2023-02-10T03:08:02;68.57;;;29.00;;
48845;SDS011;34665;51.886;5.436;2023-02-10T03:10:27;66.67;;;28.47;;
48845;SDS011;34665;51.886;5.436;2023-02-10T03:12:53;80.40;;;28.97;;
48845;SDS011;34665;51.886;5.436;2023-02-10T03:15:19;73.63;;;26.85;;
48845;SDS011;34665;51.886;5.436;2023-02-10T03:17:44;65.05;;;26.90;;
48845;SDS011;34665;51.886;5.436;2023-02-10T03:20:10;48.00;;;20.23;;
48845;SDS011;34665;51.886;5.436;2023-02-10T03:22:36;64.95;;;25.50;;
48845;SDS011;34665;51.886;5.436;2023-02-10T03:25:02;62.40;;;26.58;;
48845;SDS011;34665;51.886;5.436;2023-02-10T03:27:27;68.80;;;26.83;;
48845;SDS011;34665;51.886;5.436;2023-02-10T03:29:52;70.03;;;27.97;;
48845;SDS011;34665;51.886;5.436;2023-02-10T03:32:18;59.15;;;26.15;;
48845;SDS011;34665;51.886;5.436;2023-02-10T03:34:44;63.55;;;26.85;;
48845;SDS011;34665;51.886;5.436;2023-02-10T03:37:10;52.67;;;20.85;;
48845;SDS011;34665;51.886;5.436;2023-02-10T03:39:37;68.22;;;26.40;;
48845;SDS011;34665;51.886;5.436;2023-02-10T03:42:03;81.07;;;27.08;;
48845;SDS011;34665;51.886;5.436;2023-02-10T03:44:29;66.30;;;29.13;;
48845;SDS011;34665;51.886;5.436;2023-02-10T03:46:55;76.00;;;26.93;;
48845;SDS011;34665;51.886;5.436;2023-02-10T03:49:20;66.17;;;25.37;;
48845;SDS011;34665;51.886;5.436;2023-02-10T03:51:46;71.33;;;28.27;;
48845;SDS011;34665;51.886;5.436;2023-02-10T03:54:11;70.60;;;27.97;;
48845;SDS011;34665;51.886;5.436;2023-02-10T03:56:37;70.82;;;29.27;;
48845;SDS011;34665;51.886;5.436;2023-02-10T03:59:03;84.23;;;30.40;;
48845;SDS011;34665;51.886;5.436;2023-02-10T04:01:29;80.43;;;29.70;;
48845;SDS011;34665;51.886;5.436;2023-02-10T04:03:56;83.43;;;30.83;;
48845;SDS011;34665;51.886;5.436;2023-02-10T04:06:21;74.27;;;30.97;;
48845;SDS011;34665;51.886;5.436;2023-02-10T04:08:47;77.95;;;31.30;;
48845;SDS011;34665;51.886;5.436;2023-02-10T04:11:14;82.00;;;30.25;;
48845;SDS011;34665;51.886;5.436;2023-02-10T04:13:40;80.45;;;31.63;;
48845;SDS011;34665;51.886;5.436;2023-02-10T04:16:07;75.75;;;30.83;;
48845;SDS011;34665;51.886;5.436;2023-02-10T04:18:35;75.53;;;30.40;;
48845;SDS011;34665;51.886;5.436;2023-02-10T04:21:02;75.82;;;30.13;;
48845;SDS011;34665;51.886;5.436;2023-02-10T04:23:29;77.85;;;28.55;;
48845;SDS011;34665;51.886;5.436;2023-02-10T04:25:55;91.45;;;32.45;;
48845;SDS011;34665;51.886;5.436;2023-02-10T04:28:21;83.70;;;30.67;;
48845;SDS011;34665;51.886;5.436;2023-02-10T04:30:50;75.13;;;30.70;;
48845;SDS011;34665;51.886;5.436;2023-02-10T04:33:20;75.80;;;30.25;;
48845;SDS011;34665;51.886;5.436;2023-02-10T04:35:49;78.80;;;30.40;;
48845;SDS011;34665;51.886;5.436;2023-02-10T04:38:16;76.18;;;31.48;;
48845;SDS011;34665;51.886;5.436;2023-02-10T04:40:41;80.95;;;31.67;;
48845;SDS011;34665;51.886;5.436;2023-02-10T04:43:08;77.03;;;30.95;;
48845;SDS011;34665;51.886;5.436;2023-02-10T04:48:00;81.07;;;33.53;;
48845;SDS011;34665;51.886;5.436;2023-02-10T04:50:26;78.10;;;31.07;;
48845;SDS011;34665;51.886;5.436;2023-02-10T04:52:52;77.10;;;30.83;;
48845;SDS011;34665;51.886;5.436;2023-02-10T04:55:17;86.93;;;31.77;;
48845;SDS011;34665;51.886;5.436;2023-02-10T04:57:43;83.23;;;31.70;;
48845;SDS011;34665;51.886;5.436;2023-02-10T05:00:08;82.87;;;30.70;;
48845;SDS011;34665;51.886;5.436;2023-02-10T05:02:34;85.40;;;30.75;;
48845;SDS011;34665;51.886;5.436;2023-02-10T05:05:00;71.50;;;28.85;;
48845;SDS011;34665;51.886;5.436;2023-02-10T05:07:26;78.15;;;29.33;;
48845;SDS011;34665;51.886;5.436;2023-02-10T05:09:52;76.00;;;29.73;;
48845;SDS011;34665;51.886;5.436;2023-02-10T05:12:17;80.83;;;31.63;;
48845;SDS011;34665;51.886;5.436;2023-02-10T05:14:42;81.20;;;30.43;;
48845;SDS011;34665;51.886;5.436;2023-02-10T05:17:08;71.43;;;30.00;;
48845;SDS011;34665;51.886;5.436;2023-02-10T05:19:34;88.60;;;31.15;;
48845;SDS011;34665;51.886;5.436;2023-02-10T05:21:59;71.70;;;31.90;;
48845;SDS011;34665;51.886;5.436;2023-02-10T05:24:24;89.87;;;32.63;;
48845;SDS011;34665;51.886;5.436;2023-02-10T05:26:50;78.43;;;30.33;;
48845;SDS011;34665;51.886;5.436;2023-02-10T05:29:16;87.33;;;31.13;;
48845;SDS011;34665;51.886;5.436;2023-02-10T05:31:41;76.50;;;28.90;;
48845;SDS011;34665;51.886;5.436;2023-02-10T05:34:06;90.23;;;30.13;;
48845;SDS011;34665;51.886;5.436;2023-02-10T05:36:32;64.30;;;25.40;;
48845;SDS011;34665;51.886;5.436;2023-02-10T05:38:57;85.07;;;31.23;;
48845;SDS011;34665;51.886;5.436;2023-02-10T05:41:42;85.85;;;32.38;;
48845;SDS011;34665;51.886;5.436;2023-02-10T05:44:07;84.03;;;33.97;;
48845;SDS011;34665;51.886;5.436;2023-02-10T05:46:33;97.20;;;35.30;;
48845;SDS011;34665;51.886;5.436;2023-02-10T05:48:58;88.53;;;34.30;;
48845;SDS011;34665;51.886;5.436;2023-02-10T05:51:24;91.23;;;34.67;;
48845;SDS011;34665;51.886;5.436;2023-02-10T05:53:50;94.03;;;33.78;;
48845;SDS011;34665;51.886;5.436;2023-02-10T05:56:15;89.20;;;36.03;;
48845;SDS011;34665;51.886;5.436;2023-02-10T05:58:41;90.60;;;33.75;;
48845;SDS011;34665;51.886;5.436;2023-02-10T06:01:07;91.70;;;34.77;;
48845;SDS011;34665;51.886;5.436;2023-02-10T06:03:34;87.30;;;31.27;;
48845;SDS011;34665;51.886;5.436;2023-02-10T06:06:00;101.25;;;36.40;;
48845;SDS011;34665;51.886;5.436;2023-02-10T06:08:25;93.97;;;37.40;;
48845;SDS011;34665;51.886;5.436;2023-02-10T06:10:51;99.40;;;36.73;;
48845;SDS011;34665;51.886;5.436;2023-02-10T06:13:17;95.07;;;38.45;;
48845;SDS011;34665;51.886;5.436;2023-02-10T06:15:43;91.65;;;36.20;;
48845;SDS011;34665;51.886;5.436;2023-02-10T06:18:08;91.30;;;37.30;;
48845;SDS011;34665;51.886;5.436;2023-02-10T06:20:34;102.87;;;38.43;;
48845;SDS011;34665;51.886;5.436;2023-02-10T06:22:59;103.27;;;37.70;;
48845;SDS011;34665;51.886;5.436;2023-02-10T06:25:25;66.47;;;28.33;;
48845;SDS011;34665;51.886;5.436;2023-02-10T06:27:50;97.77;;;37.10;;
48845;SDS011;34665;51.886;5.436;2023-02-10T06:30:16;87.55;;;30.77;;
48845;SDS011;34665;51.886;5.436;2023-02-10T06:32:42;108.70;;;36.15;;
48845;SDS011;34665;51.886;5.436;2023-02-10T06:35:07;110.53;;;37.50;;
48845;SDS011;34665;51.886;5.436;2023-02-10T06:37:33;90.53;;;33.70;;
48845;SDS011;34665;51.886;5.436;2023-02-10T06:39:58;112.37;;;41.83;;
48845;SDS011;34665;51.886;5.436;2023-02-10T06:42:24;105.90;;;41.15;;
48845;SDS011;34665;51.886;5.436;2023-02-10T06:44:49;113.13;;;37.83;;
48845;SDS011;34665;51.886;5.436;2023-02-10T06:47:15;104.00;;;37.97;;
48845;SDS011;34665;51.886;5.436;2023-02-10T06:49:40;98.43;;;36.60;;
48845;SDS011;34665;51.886;5.436;2023-02-10T06:52:06;101.13;;;30.90;;
48845;SDS011;34665;51.886;5.436;2023-02-10T06:54:31;111.40;;;41.07;;
48845;SDS011;34665;51.886;5.436;2023-02-10T06:56:57;114.38;;;40.17;;
48845;SDS011;34665;51.886;5.436;2023-02-10T06:59:23;116.07;;;42.73;;
48845;SDS011;34665;51.886;5.436;2023-02-10T07:01:48;103.53;;;38.30;;
48845;SDS011;34665;51.886;5.436;2023-02-10T07:04:14;109.50;;;39.93;;
48845;SDS011;34665;51.886;5.436;2023-02-10T07:06:39;100.28;;;38.15;;
48845;SDS011;34665;51.886;5.436;2023-02-10T07:09:05;112.23;;;40.37;;
48845;SDS011;34665;51.886;5.436;2023-02-10T07:11:31;106.07;;;38.65;;
48845;SDS011;34665;51.886;5.436;2023-02-10T07:13:58;125.63;;;43.30;;
48845;SDS011;34665;51.886;5.436;2023-02-10T07:16:24;149.27;;;44.30;;
48845;SDS011;34665;51.886;5.436;2023-02-10T07:18:49;284.90;;;51.67;;
48845;SDS011;34665;51.886;5.436;2023-02-10T07:21:15;173.13;;;38.97;;
48845;SDS011;34665;51.886;5.436;2023-02-10T07:23:40;128.53;;;43.87;;
48845;SDS011;34665;51.886;5.436;2023-02-10T07:26:06;117.33;;;42.60;;
48845;SDS011;34665;51.886;5.436;2023-02-10T07:30:58;105.13;;;37.43;;
48845;SDS011;34665;51.886;5.436;2023-02-10T07:33:24;111.18;;;41.80;;
48845;SDS011;34665;51.886;5.436;2023-02-10T07:35:50;107.10;;;36.77;;
48845;SDS011;34665;51.886;5.436;2023-02-10T07:38:16;110.37;;;38.43;;
48845;SDS011;34665;51.886;5.436;2023-02-10T07:40:42;109.47;;;39.00;;
48845;SDS011;34665;51.886;5.436;2023-02-10T07:43:08;107.13;;;39.20;;
48845;SDS011;34665;51.886;5.436;2023-02-10T07:45:42;114.05;;;39.17;;
48845;SDS011;34665;51.886;5.436;2023-02-10T07:48:07;122.67;;;37.40;;
48845;SDS011;34665;51.886;5.436;2023-02-10T07:50:33;97.43;;;32.17;;
48845;SDS011;34665;51.886;5.436;2023-02-10T07:52:58;79.27;;;30.17;;
48845;SDS011;34665;51.886;5.436;2023-02-10T07:55:24;105.47;;;36.17;;
48845;SDS011;34665;51.886;5.436;2023-02-10T07:57:50;102.27;;;37.80;;
48845;SDS011;34665;51.886;5.436;2023-02-10T08:00:16;106.05;;;37.33;;
48845;SDS011;34665;51.886;5.436;2023-02-10T08:02:42;90.13;;;28.43;;
48845;SDS011;34665;51.886;5.436;2023-02-10T08:05:07;104.13;;;36.20;;
48845;SDS011;34665;51.886;5.436;2023-02-10T08:07:33;113.13;;;36.75;;
48845;SDS011;34665;51.886;5.436;2023-02-10T08:09:59;108.40;;;36.53;;
48845;SDS011;34665;51.886;5.436;2023-02-10T08:12:24;90.18;;;35.90;;
48845;SDS011;34665;51.886;5.436;2023-02-10T08:14:50;100.20;;;36.93;;
48845;SDS011;34665;51.886;5.436;2023-02-10T08:17:15;102.43;;;34.33;;
48845;SDS011;34665;51.886;5.436;2023-02-10T08:19:41;103.70;;;36.40;;
48845;SDS011;34665;51.886;5.436;2023-02-10T08:22:06;111.47;;;36.87;;
48845;SDS011;34665;51.886;5.436;2023-02-10T08:24:32;78.97;;;29.08;;
48845;SDS011;34665;51.886;5.436;2023-02-10T08:26:57;102.50;;;34.97;;
48845;SDS011;34665;51.886;5.436;2023-02-10T08:29:23;94.87;;;35.03;;
48845;SDS011;34665;51.886;5.436;2023-02-10T08:31:49;92.70;;;31.40;;
48845;SDS011;34665;51.886;5.436;2023-02-10T08:34:16;121.13;;;42.65;;
48845;SDS011;34665;51.886;5.436;2023-02-10T08:36:43;109.70;;;37.90;;
48845;SDS011;34665;51.886;5.436;2023-02-10T08:39:08;98.70;;;38.53;;
48845;SDS011;34665;51.886;5.436;2023-02-10T08:41:34;116.88;;;40.92;;
48845;SDS011;34665;51.886;5.436;2023-02-10T08:44:00;119.05;;;40.42;;
48845;SDS011;34665;51.886;5.436;2023-02-10T08:46:26;131.27;;;41.92;;
48845;SDS011;34665;51.886;5.436;2023-02-10T08:48:51;115.97;;;42.77;;
48845;SDS011;34665;51.886;5.436;2023-02-10T08:51:17;118.30;;;44.90;;
48845;SDS011;34665;51.886;5.436;2023-02-10T08:53:42;118.07;;;39.53;;
48845;SDS011;34665;51.886;5.436;2023-02-10T08:56:09;110.28;;;37.55;;
48845;SDS011;34665;51.886;5.436;2023-02-10T08:58:38;114.00;;;38.17;;
48845;SDS011;34665;51.886;5.436;2023-02-10T09:03:58;127.80;;;40.10;;
48845;SDS011;34665;51.886;5.436;2023-02-10T09:06:26;119.13;;;41.47;;
48845;SDS011;34665;51.886;5.436;2023-02-10T09:08:53;114.50;;;40.38;;
48845;SDS011;34665;51.886;5.436;2023-02-10T09:11:20;120.38;;;41.38;;
48845;SDS011;34665;51.886;5.436;2023-02-10T09:13:49;130.48;;;43.00;;
48845;SDS011;34665;51.886;5.436;2023-02-10T09:16:15;111.90;;;39.15;;
48845;SDS011;34665;51.886;5.436;2023-02-10T09:18:41;107.77;;;38.63;;
48845;SDS011;34665;51.886;5.436;2023-02-10T09:21:06;96.83;;;34.60;;
48845;SDS011;34665;51.886;5.436;2023-02-10T09:23:32;87.27;;;31.93;;
48845;SDS011;34665;51.886;5.436;2023-02-10T09:25:58;87.63;;;31.43;;
48845;SDS011;34665;51.886;5.436;2023-02-10T09:28:25;93.28;;;31.48;;
48845;SDS011;34665;51.886;5.436;2023-02-10T09:33:17;84.97;;;31.00;;
48845;SDS011;34665;51.886;5.436;2023-02-10T09:35:44;74.38;;;29.23;;
48845;SDS011;34665;51.886;5.436;2023-02-10T09:38:10;83.90;;;27.98;;
48845;SDS011;34665;51.886;5.436;2023-02-10T09:40:41;88.63;;;30.48;;
48845;SDS011;34665;51.886;5.436;2023-02-10T09:43:19;81.85;;;28.40;;
48845;SDS011;34665;51.886;5.436;2023-02-10T09:45:51;72.25;;;28.10;;
48845;SDS011;34665;51.886;5.436;2023-02-10T09:48:42;83.45;;;28.55;;
48845;SDS011;34665;51.886;5.436;2023-02-10T09:51:48;62.00;;;25.05;;
48845;SDS011;34665;51.886;5.436;2023-02-10T09:54:27;59.75;;;25.08;;
48845;SDS011;34665;51.886;5.436;2023-02-10T09:57:04;56.33;;;23.02;;
48845;SDS011;34665;51.886;5.436;2023-02-10T09:59:34;54.13;;;22.67;;
48845;SDS011;34665;51.886;5.436;2023-02-10T10:02:11;56.08;;;24.63;;
48845;SDS011;34665;51.886;5.436;2023-02-10T10:04:46;53.33;;;22.85;;
48845;SDS011;34665;51.886;5.436;2023-02-10T10:07:22;53.37;;;23.03;;
48845;SDS011;34665;51.886;5.436;2023-02-10T10:09:59;51.07;;;22.40;;
48845;SDS011;34665;51.886;5.436;2023-02-10T10:12:28;56.37;;;23.37;;
48845;SDS011;34665;51.886;5.436;2023-02-10T10:14:53;51.72;;;22.42;;
48845;SDS011;34665;51.886;5.436;2023-02-10T10:17:25;49.65;;;22.27;;
48845;SDS011;34665;51.886;5.436;2023-02-10T10:20:20;48.67;;;19.83;;
48845;SDS011;34665;51.886;5.436;2023-02-10T10:30:46;51.07;;;21.97;;
48845;SDS011;34665;51.886;5.436;2023-02-10T10:33:45;50.97;;;21.77;;
48845;SDS011;34665;51.886;5.436;2023-02-10T10:36:18;54.63;;;22.40;;
48845;SDS011;34665;51.886;5.436;2023-02-10T10:38:52;48.87;;;21.70;;
48845;SDS011;34665;51.886;5.436;2023-02-10T10:41:19;46.93;;;21.50;;
48845;SDS011;34665;51.886;5.436;2023-02-10T10:43:51;54.20;;;21.80;;
48845;SDS011;34665;51.886;5.436;2023-02-10T10:48:55;49.07;;;21.13;;
48845;SDS011;34665;51.886;5.436;2023-02-10T10:51:21;48.42;;;21.10;;
48845;SDS011;34665;51.886;5.436;2023-02-10T10:59:10;54.13;;;21.70;;
48845;SDS011;34665;51.886;5.436;2023-02-10T11:01:45;52.03;;;21.73;;
48845;SDS011;34665;51.886;5.436;2023-02-10T11:04:15;52.80;;;21.57;;
48845;SDS011;34665;51.886;5.436;2023-02-10T11:06:45;56.97;;;21.07;;
48845;SDS011;34665;51.886;5.436;2023-02-10T11:12:06;49.80;;;21.33;;
48845;SDS011;34665;51.886;5.436;2023-02-10T11:14:44;53.00;;;21.63;;
48845;SDS011;34665;51.886;5.436;2023-02-10T11:17:24;46.27;;;19.67;;
48845;SDS011;34665;51.886;5.436;2023-02-10T11:20:33;46.90;;;20.40;;
48845;SDS011;34665;51.886;5.436;2023-02-10T11:22:41;49.97;;;21.20;;
48845;SDS011;34665;51.886;5.436;2023-02-10T11:27:52;49.10;;;22.23;;
48845;SDS011;34665;51.886;5.436;2023-02-10T11:30:23;45.70;;;21.43;;
48845;SDS011;34665;51.886;5.436;2023-02-10T11:32:57;50.90;;;20.30;;
48845;SDS011;34665;51.886;5.436;2023-02-10T11:35:25;49.27;;;21.57;;
48845;SDS011;34665;51.886;5.436;2023-02-10T11:37:53;49.57;;;20.33;;
48845;SDS011;34665;51.886;5.436;2023-02-10T11:40:27;49.37;;;21.70;;
48845;SDS011;34665;51.886;5.436;2023-02-10T11:42:56;49.17;;;21.50;;
48845;SDS011;34665;51.886;5.436;2023-02-10T11:45:25;46.27;;;20.60;;
48845;SDS011;34665;51.886;5.436;2023-02-10T11:48:01;45.43;;;19.70;;
48845;SDS011;34665;51.886;5.436;2023-02-10T11:50:37;42.23;;;18.50;;
48845;SDS011;34665;51.886;5.436;2023-02-10T11:53:03;40.85;;;18.83;;
48845;SDS011;34665;51.886;5.436;2023-02-10T11:55:41;49.60;;;18.20;;
48845;SDS011;34665;51.886;5.436;2023-02-10T11:58:20;41.37;;;18.67;;
48845;SDS011;34665;51.886;5.436;2023-02-10T12:04:15;36.87;;;17.87;;
48845;SDS011;34665;51.886;5.436;2023-02-10T12:12:56;38.27;;;17.03;;
48845;SDS011;34665;51.886;5.436;2023-02-10T12:15:37;37.97;;;16.80;;
48845;SDS011;34665;51.886;5.436;2023-02-10T12:18:18;41.37;;;17.37;;
48845;SDS011;34665;51.886;5.436;2023-02-10T12:25:54;45.57;;;17.23;;
48845;SDS011;34665;51.886;5.436;2023-02-10T12:34:25;38.53;;;17.40;;
48845;SDS011;34665;51.886;5.436;2023-02-10T12:42:34;36.57;;;16.80;;
48845;SDS011;34665;51.886;5.436;2023-02-10T12:50:20;46.03;;;18.23;;
48845;SDS011;34665;51.886;5.436;2023-02-10T12:52:55;47.20;;;19.73;;
48845;SDS011;34665;51.886;5.436;2023-02-10T12:55:27;45.60;;;20.20;;
48845;SDS011;34665;51.886;5.436;2023-02-10T12:58:10;48.08;;;20.83;;
48845;SDS011;34665;51.886;5.436;2023-02-10T13:00:42;50.83;;;20.90;;
48845;SDS011;34665;51.886;5.436;2023-02-10T13:03:17;51.10;;;21.63;;
48845;SDS011;34665;51.886;5.436;2023-02-10T13:05:49;52.20;;;22.70;;
48845;SDS011;34665;51.886;5.436;2023-02-10T13:08:30;53.50;;;21.93;;
48845;SDS011;34665;51.886;5.436;2023-02-10T13:11:01;48.10;;;22.00;;
48845;SDS011;34665;51.886;5.436;2023-02-10T13:13:35;56.88;;;23.48;;
48845;SDS011;34665;51.886;5.436;2023-02-10T13:16:08;50.57;;;22.97;;
48845;SDS011;34665;51.886;5.436;2023-02-10T13:19:01;59.50;;;22.03;;
48845;SDS011;34665;51.886;5.436;2023-02-10T13:21:29;55.17;;;24.07;;
48845;SDS011;34665;51.886;5.436;2023-02-10T13:24:19;60.30;;;25.73;;
48845;SDS011;34665;51.886;5.436;2023-02-10T13:26:53;58.33;;;24.70;;
48845;SDS011;34665;51.886;5.436;2023-02-10T13:29:40;63.63;;;26.30;;
48845;SDS011;34665;51.886;5.436;2023-02-10T13:35:18;63.37;;;27.43;;
48845;SDS011;34665;51.886;5.436;2023-02-10T13:37:48;70.23;;;29.13;;
48845;SDS011;34665;51.886;5.436;2023-02-10T13:40:22;78.40;;;33.37;;
48845;SDS011;34665;51.886;5.436;2023-02-10T13:42:54;74.40;;;33.97;;
48845;SDS011;34665;51.886;5.436;2023-02-10T13:45:24;84.07;;;34.20;;
48845;SDS011;34665;51.886;5.436;2023-02-10T13:47:57;87.53;;;36.67;;
48845;SDS011;34665;51.886;5.436;2023-02-10T13:52:59;83.47;;;34.10;;
48845;SDS011;34665;51.886;5.436;2023-02-10T14:00:29;79.83;;;35.43;;
48845;SDS011;34665;51.886;5.436;2023-02-10T14:03:17;83.10;;;36.73;;
48845;SDS011;34665;51.886;5.436;2023-02-10T14:08:40;79.13;;;37.37;;
48845;SDS011;34665;51.886;5.436;2023-02-10T14:13:39;77.80;;;36.57;;
48845;SDS011;34665;51.886;5.436;2023-02-10T14:18:38;76.63;;;36.40;;
48845;SDS011;34665;51.886;5.436;2023-02-10T14:23:32;85.43;;;36.20;;
48845;SDS011;34665;51.886;5.436;2023-02-10T14:26:04;71.23;;;36.03;;
48845;SDS011;34665;51.886;5.436;2023-02-10T14:28:36;77.10;;;33.10;;
48845;SDS011;34665;51.886;5.436;2023-02-10T14:31:11;74.93;;;35.43;;
48845;SDS011;34665;51.886;5.436;2023-02-10T14:33:40;67.27;;;30.87;;
48845;SDS011;34665;51.886;5.436;2023-02-10T14:36:14;58.70;;;27.60;;
48845;SDS011;34665;51.886;5.436;2023-02-10T14:38:43;61.57;;;28.20;;
48845;SDS011;34665;51.886;5.436;2023-02-10T14:41:14;68.77;;;29.67;;
48845;SDS011;34665;51.886;5.436;2023-02-10T14:46:06;57.53;;;25.80;;
48845;SDS011;34665;51.886;5.436;2023-02-10T14:48:36;59.60;;;26.97;;
48845;SDS011;34665;51.886;5.436;2023-02-10T14:51:03;55.30;;;25.77;;
48845;SDS011;34665;51.886;5.436;2023-02-10T14:53:32;60.33;;;25.80;;
48845;SDS011;34665;51.886;5.436;2023-02-10T14:55:59;59.50;;;27.70;;
48845;SDS011;34665;51.886;5.436;2023-02-10T14:58:26;67.07;;;28.93;;
48845;SDS011;34665;51.886;5.436;2023-02-10T15:04:00;61.67;;;26.80;;
48845;SDS011;34665;51.886;5.436;2023-02-10T15:06:29;56.03;;;24.83;;
48845;SDS011;34665;51.886;5.436;2023-02-10T15:08:58;54.23;;;24.20;;
48845;SDS011;34665;51.886;5.436;2023-02-10T15:11:37;55.77;;;24.53;;
48845;SDS011;34665;51.886;5.436;2023-02-10T15:14:35;46.00;;;21.07;;
48845;SDS011;34665;51.886;5.436;2023-02-10T15:17:20;54.10;;;24.07;;
48845;SDS011;34665;51.886;5.436;2023-02-10T15:20:00;57.40;;;21.30;;
48845;SDS011;34665;51.886;5.436;2023-02-10T15:22:38;58.17;;;23.93;;
48845;SDS011;34665;51.886;5.436;2023-02-10T15:28:01;57.53;;;24.50;;
48845;SDS011;34665;51.886;5.436;2023-02-10T15:33:40;67.25;;;29.55;;
48845;SDS011;34665;51.886;5.436;2023-02-10T15:39:03;66.45;;;26.70;;
48845;SDS011;34665;51.886;5.436;2023-02-10T15:43:58;67.47;;;26.83;;
48845;SDS011;34665;51.886;5.436;2023-02-10T15:48:51;78.63;;;28.65;;
48845;SDS011;34665;51.886;5.436;2023-02-10T15:51:24;68.68;;;28.27;;
48845;SDS011;34665;51.886;5.436;2023-02-10T15:53:52;68.20;;;31.80;;
48845;SDS011;34665;51.886;5.436;2023-02-10T15:56:21;75.00;;;31.73;;
48845;SDS011;34665;51.886;5.436;2023-02-10T15:58:50;76.07;;;31.73;;
48845;SDS011;34665;51.886;5.436;2023-02-10T16:01:16;69.93;;;31.55;;
48845;SDS011;34665;51.886;5.436;2023-02-10T16:03:42;72.13;;;31.17;;
48845;SDS011;34665;51.886;5.436;2023-02-10T16:06:14;75.13;;;31.27;;
48845;SDS011;34665;51.886;5.436;2023-02-10T16:08:41;75.68;;;32.78;;
48845;SDS011;34665;51.886;5.436;2023-02-10T16:11:11;82.97;;;30.80;;
48845;SDS011;34665;51.886;5.436;2023-02-10T16:13:37;79.93;;;33.17;;
48845;SDS011;34665;51.886;5.436;2023-02-10T16:16:02;82.53;;;33.47;;
48845;SDS011;34665;51.886;5.436;2023-02-10T16:18:29;80.13;;;33.25;;
48845;SDS011;34665;51.886;5.436;2023-02-10T16:20:55;84.18;;;35.13;;
48845;SDS011;34665;51.886;5.436;2023-02-10T16:23:20;79.70;;;33.03;;
48845;SDS011;34665;51.886;5.436;2023-02-10T16:25:47;80.20;;;33.90;;
48845;SDS011;34665;51.886;5.436;2023-02-10T16:28:14;84.10;;;32.53;;
48845;SDS011;34665;51.886;5.436;2023-02-10T16:30:42;75.35;;;32.08;;
48845;SDS011;34665;51.886;5.436;2023-02-10T16:33:08;73.50;;;31.90;;
48845;SDS011;34665;51.886;5.436;2023-02-10T16:38:00;69.00;;;29.33;;